Time;durP1;ratioP1;P1;durP2;ratioP2;P2;SDS_P1;SDS_P2;PMS_P1;PMS_P2;Temp;Humidity;BMP_temperature;BMP_pressure;BME280_temperature;BME280_humidity;BME280_pressure;Samples;Min_cycle;Max_cycle;Signal;HPM_P1;HPM_P2
2023/09/18 00:00:59;;;;;;;2.88;1.73;;;;;;;22.75;52.14;100452.09;16103109;19;131707;-53
2023/09/18 00:06:23;;;;;;;4.05;2.10;;;;;;;22.75;52.20;100438.16;16102243;19;130050;-52
2023/09/18 00:11:45;;;;;;;6.88;2.03;;;;;;;22.73;52.35;100441.25;16106362;19;133481;-50
2023/09/18 00:17:07;;;;;;;3.28;2.10;;;;;;;22.73;52.54;100429.25;16108113;19;129810;-55
2023/09/18 00:22:30;;;;;;;4.65;2.00;;;;;;;22.73;52.79;100420.88;16109875;19;130928;-53
2023/09/18 00:27:52;;;;;;;3.67;2.10;;;;;;;22.72;52.43;100408.91;16108718;19;130786;-51
2023/09/18 00:33:14;;;;;;;3.80;1.90;;;;;;;22.71;52.52;100393.28;16110487;19;129236;-52
2023/09/18 00:38:36;;;;;;;3.25;2.15;;;;;;;22.70;52.39;100402.78;16106375;19;129909;-51
2023/09/18 00:43:58;;;;;;;3.13;1.73;;;;;;;22.70;52.47;100402.78;16121777;19;131241;-51
2023/09/18 00:49:22;;;;;;;4.63;1.80;;;;;;;22.70;52.48;100408.34;16119421;19;130754;-50
2023/09/18 00:54:45;;;;;;;2.15;1.70;;;;;;;22.70;52.45;100376.84;16119120;19;130182;-49
2023/09/18 01:00:08;;;;;;;3.47;1.60;;;;;;;22.69;52.45;100366.81;16122281;19;130622;-53
2023/09/18 01:05:33;;;;;;;4.68;1.95;;;;;;;22.67;52.48;100353.16;16117646;19;129601;-53
2023/09/18 01:11:02;;;;;;;2.90;1.60;;;;;;;22.68;52.35;100349.25;16121121;19;130597;-50
2023/09/18 01:16:32;;;;;;;4.53;1.70;;;;;;;22.68;52.38;100346.47;16120403;19;130445;-52
2023/09/18 01:21:54;;;;;;;2.85;1.73;;;;;;;22.66;52.44;100362.63;16119145;19;129629;-53
2023/09/18 01:27:18;;;;;;;1.75;1.50;;;;;;;22.66;52.32;100396.09;16117040;19;129653;-54
2023/09/18 01:32:41;;;;;;;2.75;1.65;;;;;;;22.65;52.15;100427.88;16119256;19;132305;-54
2023/09/18 01:38:04;;;;;;;2.20;1.48;;;;;;;22.66;52.12;100410.03;16117351;19;129571;-55
2023/09/18 01:43:26;;;;;;;3.72;1.95;;;;;;;22.65;52.25;100427.88;16114513;19;130566;-54
2023/09/18 01:48:48;;;;;;;2.20;1.63;;;;;;;22.65;51.97;100402.78;16119051;19;130060;-58
2023/09/18 01:54:11;;;;;;;1.55;1.40;;;;;;;22.64;52.28;100370.47;16120561;19;129785;-57
2023/09/18 01:59:34;;;;;;;2.53;1.60;;;;;;;22.64;52.35;100364.91;16116954;19;130890;-57
2023/09/18 02:04:58;;;;;;;3.10;1.50;;;;;;;22.63;52.25;100357.66;16115139;19;129285;-56
2023/09/18 02:10:30;;;;;;;2.85;1.65;;;;;;;22.62;52.43;100358.78;16114946;19;131562;-58
2023/09/18 02:15:53;;;;;;;2.20;1.50;;;;;;;22.62;52.33;100350.41;16116408;19;129664;-57
2023/09/18 02:21:20;;;;;;;2.90;1.40;;;;;;;22.64;52.02;100330.59;16114595;19;131027;-54
2023/09/18 02:26:41;;;;;;;3.35;1.35;;;;;;;22.62;52.13;100344.84;16112105;19;129555;-54
2023/09/18 02:32:04;;;;;;;2.40;1.60;;;;;;;22.61;51.98;100332.03;16115761;19;130444;-51
2023/09/18 02:37:28;;;;;;;2.67;1.80;;;;;;;22.60;52.07;100313.63;16104260;19;130074;-51
2023/09/18 02:42:50;;;;;;;1.83;1.50;;;;;;;22.61;52.13;100312.50;16111664;19;130251;-53
2023/09/18 02:48:13;;;;;;;3.53;1.58;;;;;;;22.60;52.34;100302.47;16105446;19;129547;-51
2023/09/18 02:53:35;;;;;;;1.38;1.10;;;;;;;22.60;52.32;100285.75;16107354;19;130129;-53
2023/09/18 02:58:57;;;;;;;1.73;1.27;;;;;;;22.60;51.92;100274.59;16112122;19;130539;-48
2023/09/18 03:04:19;;;;;;;2.65;1.13;;;;;;;22.59;52.62;100276.53;16106013;19;131354;-49
2023/09/18 03:09:41;;;;;;;2.17;1.30;;;;;;;22.58;52.29;100305.56;16107408;19;131560;-49
2023/09/18 03:15:04;;;;;;;1.73;1.27;;;;;;;22.58;52.36;100286.03;16111848;19;129751;-48
2023/09/18 03:20:28;;;;;;;1.85;1.23;;;;;;;22.59;52.46;100281.28;16110691;19;130080;-50
2023/09/18 03:25:50;;;;;;;1.30;1.00;;;;;;;22.58;52.19;100302.78;16110496;19;130531;-47
2023/09/18 03:31:12;;;;;;;2.40;1.30;;;;;;;22.58;52.32;100274.03;16109242;19;130754;-48
2023/09/18 03:36:36;;;;;;;1.60;1.20;;;;;;;22.58;52.61;100254.53;16111774;19;131426;-50
2023/09/18 03:41:58;;;;;;;2.38;1.13;;;;;;;22.57;52.26;100236.13;16108994;19;129573;-51
2023/09/18 03:47:20;;;;;;;1.60;1.13;;;;;;;22.56;52.26;100242.84;16110135;19;131304;-51
2023/09/18 03:52:42;;;;;;;1.10;1.00;;;;;;;22.56;52.15;100245.63;16113447;19;129636;-49
2023/09/18 03:58:05;;;;;;;2.85;1.30;;;;;;;22.55;52.29;100255.09;16107122;19;131081;-52
2023/09/18 04:03:27;;;;;;;1.63;1.20;;;;;;;22.55;52.08;100246.75;16106543;19;130104;-51
2023/09/18 04:08:49;;;;;;;1.45;1.15;;;;;;;22.55;52.20;100239.22;16108370;19;131474;-49
2023/09/18 04:14:11;;;;;;;2.25;1.40;;;;;;;22.55;52.25;100232.81;16108059;19;129761;-50
2023/09/18 04:19:34;;;;;;;1.25;1.05;;;;;;;22.54;52.30;100219.97;16121606;19;130932;-50
2023/09/18 04:24:56;;;;;;;2.22;1.30;;;;;;;22.54;51.96;100225.56;16120524;19;130657;-52
2023/09/18 04:30:19;;;;;;;1.52;1.02;;;;;;;22.56;52.17;100206.59;16121082;19;130191;-49
2023/09/18 04:35:44;;;;;;;1.20;1.10;;;;;;;22.54;51.87;100214.41;16118818;19;130953;-49
2023/09/18 04:41:07;;;;;;;1.57;1.10;;;;;;;22.53;52.00;100218.31;16120118;19;130805;-50
2023/09/18 04:46:29;;;;;;;1.60;1.10;;;;;;;22.53;52.18;100215.53;16121116;19;131059;-48
2023/09/18 04:51:51;;;;;;;1.42;1.05;;;;;;;22.53;52.25;100221.94;16118834;19;128971;-49
2023/09/18 04:57:14;;;;;;;2.58;1.15;;;;;;;22.52;52.35;100225.03;16120584;19;130186;-52
2023/09/18 05:02:39;;;;;;;1.38;1.10;;;;;;;22.52;52.43;100217.50;16113385;19;130747;-49
2023/09/18 05:08:07;;;;;;;1.77;1.10;;;;;;;22.52;52.19;100222.25;16118493;19;130158;-51
2023/09/18 05:13:29;;;;;;;1.08;1.00;;;;;;;22.51;52.08;100218.63;16112502;19;130503;-47
2023/09/18 05:18:51;;;;;;;2.13;1.00;;;;;;;22.51;52.38;100221.41;16117345;19;130914;-46
2023/09/18 05:24:14;;;;;;;1.50;1.17;;;;;;;22.50;52.09;100230.06;16114530;19;131212;-46
2023/09/18 05:29:37;;;;;;;2.35;1.20;;;;;;;22.49;52.60;100239.56;16115082;19;129849;-47
2023/09/18 05:35:04;;;;;;;11.73;1.58;;;;;;;22.50;52.72;100258.75;16115310;19;131687;-49
2023/09/18 05:40:26;;;;;;;4.03;1.20;;;;;;;22.51;52.48;100260.44;16122377;19;129737;-55
2023/09/18 05:45:49;;;;;;;2.60;1.25;;;;;;;22.51;52.48;100248.47;16116089;19;131561;-57
2023/09/18 05:51:11;;;;;;;4.53;1.95;;;;;;;22.51;52.66;100265.19;16117103;19;129711;-53
2023/09/18 05:56:33;;;;;;;8.98;2.15;;;;;;;22.51;52.43;100254.03;16117388;19;129705;-49
2023/09/18 06:01:55;;;;;;;6.35;2.22;;;;;;;22.50;52.39;100264.34;16110281;19;129515;-49
2023/09/18 06:07:17;;;;;;;6.57;2.70;;;;;;;22.50;52.75;100274.66;16117390;19;132023;-51
2023/09/18 06:12:40;;;;;;;4.97;3.10;;;;;;;22.50;52.83;100274.66;16117727;19;131525;-52
2023/09/18 06:18:03;;;;;;;8.40;2.85;;;;;;;22.51;52.20;100276.34;16118853;19;131542;-46
2023/09/18 06:23:25;;;;;;;5.57;3.17;;;;;;;22.50;52.47;100285.81;16112152;19;134901;-51
2023/09/18 06:28:47;;;;;;;6.35;3.20;;;;;;;22.50;52.58;100291.38;16114922;19;129351;-53
2023/09/18 06:34:13;;;;;;;8.93;3.08;;;;;;;22.50;52.48;100294.19;16116504;19;129646;-51
2023/09/18 06:39:36;;;;;;;8.93;3.60;;;;;;;22.51;52.72;100301.41;16115193;19;129720;-52
2023/09/18 06:44:59;;;;;;;6.15;2.70;;;;;;;22.51;52.40;100312.56;16116351;19;129801;-54
2023/09/18 06:50:20;;;;;;;5.22;3.25;;;;;;;22.51;52.83;100315.34;16116035;19;130311;-50
2023/09/18 06:55:43;;;;;;;5.78;2.75;;;;;;;22.51;52.53;100312.56;16117591;19;130776;-49
2023/09/18 07:01:09;;;;;;;6.72;2.80;;;;;;;22.51;52.44;100310.59;16115094;19;131507;-52
2023/09/18 07:06:31;;;;;;;5.30;2.65;;;;;;;22.51;52.46;100310.59;16114772;19;130103;-52
2023/09/18 07:11:53;;;;;;;5.18;2.70;;;;;;;22.52;52.61;100315.06;16111123;19;130171;-53
2023/09/18 07:17:16;;;;;;;7.38;2.70;;;;;;;22.53;52.05;100318.66;16112569;19;129711;-53
2023/09/18 07:22:38;;;;;;;3.42;2.58;;;;;;;22.52;52.31;100322.59;16110315;19;131533;-50
2023/09/18 07:28:00;;;;;;;6.95;2.90;;;;;;;22.53;52.25;100329.81;16110909;19;131067;-50
2023/09/18 07:33:22;;;;;;;5.93;2.42;;;;;;;22.54;52.36;100325.91;16109070;19;129358;-50
2023/09/18 07:38:45;;;;;;;2.95;2.10;;;;;;;22.54;52.13;100334.28;16110442;19;129627;-52
2023/09/18 07:44:07;;;;;;;6.40;2.33;;;;;;;22.54;52.27;100325.91;16109355;19;132347;-49
2023/09/18 07:49:29;;;;;;;5.88;1.83;;;;;;;22.55;51.89;100325.63;16112343;19;130648;-50
2023/09/18 07:54:51;;;;;;;4.13;1.63;;;;;;;22.59;51.88;100315.56;16124642;19;131059;-49
2023/09/18 08:00:15;;;;;;;3.00;1.50;;;;;;;22.66;51.45;100312.44;16127093;19;130826;-51
2023/09/18 08:05:37;;;;;;;5.50;1.40;;;;;;;22.75;51.48;100312.69;16124044;19;130249;-49
2023/09/18 08:11:08;;;;;;;3.60;1.40;;;;;;;22.86;50.69;100324.59;16122239;19;130196;-49
2023/09/18 08:16:30;;;;;;;8.57;1.67;;;;;;;22.98;50.65;100325.09;16125485;19;131307;-52
2023/09/18 08:21:56;;;;;;;6.85;1.42;;;;;;;23.16;50.28;100322.72;16121875;19;130275;-50
2023/09/18 08:27:19;;;;;;;5.35;1.30;;;;;;;23.31;50.19;100338.50;16125116;19;129896;-53
2023/09/18 08:32:43;;;;;;;3.15;1.10;;;;;;;23.40;49.63;100358.22;16121506;19;129939;-51
2023/09/18 08:38:05;;;;;;;5.15;1.05;;;;;;;23.41;49.51;100359.88;16122807;19;130132;-52
2023/09/18 08:43:29;;;;;;;6.88;1.55;;;;;;;23.39;49.44;100359.34;16122047;19;129615;-51
2023/09/18 08:48:53;;;;;;;4.00;1.10;;;;;;;23.32;49.55;100373.66;16124017;19;129658;-51
2023/09/18 08:54:16;;;;;;;8.93;1.30;;;;;;;23.25;49.74;100379.59;16124673;19;130952;-49
2023/09/18 08:59:39;;;;;;;4.28;1.42;;;;;;;23.18;50.02;100367.91;16120450;19;129558;-50
2023/09/18 09:05:01;;;;;;;4.00;1.50;;;;;;;23.16;50.15;100392.47;16123175;19;129653;-49
2023/09/18 09:10:25;;;;;;;4.28;1.45;;;;;;;23.11;50.06;100392.53;16121477;19;129382;-51
2023/09/18 09:15:47;;;;;;;6.30;1.55;;;;;;;23.09;49.98;100394.75;16122603;19;130489;-51
2023/09/18 09:21:10;;;;;;;3.15;1.25;;;;;;;23.05;50.18;100389.75;16124039;19;131091;-48
2023/09/18 09:26:32;;;;;;;2.55;1.30;;;;;;;23.03;50.15;100410.72;16119460;19;130816;-48
2023/09/18 09:31:56;;;;;;;8.90;1.83;;;;;;;23.00;50.27;100414.06;16121928;19;129450;-50
2023/09/18 09:37:18;;;;;;;4.55;1.45;;;;;;;22.98;50.31;100403.22;16117977;19;131817;-48
2023/09/18 09:42:40;;;;;;;2.95;1.17;;;;;;;22.97;50.35;100404.31;16116288;19;129790;-48
2023/09/18 09:48:08;;;;;;;4.45;1.50;;;;;;;22.95;50.38;100408.53;16120055;19;129691;-53
2023/09/18 09:53:47;;;;;;;3.70;1.50;;;;;;;22.94;50.33;100404.91;16121628;19;130381;-47
2023/09/18 09:59:11;;;;;;;3.22;1.80;;;;;;;22.91;50.38;100413.84;16120098;19;129749;-47
2023/09/18 10:04:36;;;;;;;2.78;1.40;;;;;;;22.91;50.46;100416.63;16117618;19;129952;-51
2023/09/18 10:09:58;;;;;;;4.10;1.80;;;;;;;22.89;50.36;100416.06;16117235;19;130833;-51
2023/09/18 10:15:23;;;;;;;3.67;1.60;;;;;;;22.88;50.35;100426.38;16112410;19;130274;-56
2023/09/18 10:20:48;;;;;;;2.93;1.67;;;;;;;22.89;50.29;100427.22;16117496;19;134660;-47
2023/09/18 10:26:15;;;;;;;6.70;1.90;;;;;;;22.89;50.10;100427.22;16114862;19;131905;-46
2023/09/18 10:31:40;;;;;;;5.88;1.92;;;;;;;22.88;50.06;100419.97;16112189;19;130379;-55
2023/09/18 10:37:07;;;;;;;4.53;1.40;;;;;;;22.87;50.37;100418.31;16115900;19;129189;-54
2023/09/18 10:42:30;;;;;;;6.90;2.10;;;;;;;22.87;50.03;100419.13;16116116;19;130320;-54
2023/09/18 10:47:55;;;;;;;3.15;1.60;;;;;;;22.87;50.07;100412.72;16115904;19;130676;-50
2023/09/18 10:53:19;;;;;;;8.57;1.83;;;;;;;22.88;50.03;100403.25;16116934;19;129616;-56
2023/09/18 10:58:42;;;;;;;6.78;2.03;;;;;;;22.89;50.15;100416.91;16115872;19;130016;-49
2023/09/18 11:04:07;;;;;;;4.15;1.67;;;;;;;22.91;49.97;100421.38;16114918;19;130500;-53
2023/09/18 11:09:33;;;;;;;4.00;1.55;;;;;;;22.92;49.90;100409.09;16114874;19;129472;-55
2023/09/18 11:14:56;;;;;;;4.95;1.98;;;;;;;22.92;49.97;100415.50;16116972;19;129978;-54
2023/09/18 11:20:24;;;;;;;5.35;2.08;;;;;;;22.95;49.77;100414.94;16113658;19;129823;-48
2023/09/18 11:25:53;;;;;;;4.50;1.80;;;;;;;22.96;49.84;100399.88;16114402;19;129476;-54
2023/09/18 11:31:15;;;;;;;11.35;1.83;;;;;;;22.96;49.51;100399.88;16112447;19;130554;-50
2023/09/18 11:36:37;;;;;;;9.07;2.13;;;;;;;22.96;49.52;100394.28;16111349;19;130005;-56
2023/09/18 11:42:21;;;;;;;6.03;2.00;;;;;;;22.98;48.85;100392.06;16112436;19;129553;-50
2023/09/18 11:47:46;;;;;;;5.82;2.20;;;;;;;22.98;49.17;100396.78;16112822;19;129249;-49
2023/09/18 11:53:09;;;;;;;4.63;1.77;;;;;;;22.99;49.16;100407.66;16112998;19;129297;-53
2023/09/18 11:58:44;;;;;;;6.57;2.00;;;;;;;23.02;48.91;100414.63;16110565;19;129696;-55
2023/09/18 12:04:13;;;;;;;4.95;1.88;;;;;;;22.99;49.06;100416.03;16109513;19;130967;-54
2023/09/18 12:09:35;;;;;;;4.55;1.77;;;;;;;22.99;48.51;100404.88;16110845;19;130336;-52
2023/09/18 12:14:57;;;;;;;4.40;1.80;;;;;;;23.00;48.63;100400.13;16108297;19;130241;-48
2023/09/18 12:20:19;;;;;;;4.22;1.83;;;;;;;23.00;48.37;100381.44;16108747;19;129156;-49
2023/09/18 12:25:44;;;;;;;6.32;2.08;;;;;;;23.00;48.25;100367.50;16109510;19;130945;-55
2023/09/18 12:31:09;;;;;;;5.70;1.83;;;;;;;23.01;48.23;100354.38;16113546;19;130025;-55
2023/09/18 12:36:32;;;;;;;10.70;1.70;;;;;;;23.03;47.90;100349.34;16114044;19;129528;-51
2023/09/18 12:41:54;;;;;;;3.05;1.60;;;;;;;23.02;48.25;100331.75;16125130;19;130166;-53
2023/09/18 12:47:16;;;;;;;7.03;1.55;;;;;;;23.02;47.77;100320.59;16128079;19;129476;-55
2023/09/18 12:52:39;;;;;;;6.05;1.60;;;;;;;23.03;47.17;100322.25;16126464;19;131293;-54
2023/09/18 12:58:05;;;;;;;3.20;1.70;;;;;;;23.04;47.30;100304.41;16125037;19;129827;-55
2023/09/18 13:03:27;;;;;;;3.88;1.77;;;;;;;23.05;46.95;100296.88;16120976;19;130020;-53
2023/09/18 13:08:50;;;;;;;3.42;1.65;;;;;;;23.06;47.50;100295.75;16127475;19;129683;-53
2023/09/18 13:14:12;;;;;;;3.33;1.60;;;;;;;23.08;47.22;100295.44;16124670;19;130476;-49
2023/09/18 13:19:35;;;;;;;3.58;1.70;;;;;;;23.09;47.19;100280.38;16118103;19;129820;-54
2023/09/18 13:24:57;;;;;;;6.18;1.75;;;;;;;23.09;46.98;100277.59;16117669;19;130563;-52
2023/09/18 13:30:21;;;;;;;2.35;1.42;;;;;;;23.08;47.24;100267.56;16118180;19;131816;-50
2023/09/18 13:35:45;;;;;;;7.10;2.00;;;;;;;23.10;46.59;100259.72;16115950;19;129646;-52
2023/09/18 13:41:07;;;;;;;3.60;1.60;;;;;;;23.10;46.42;100260.53;16120013;19;130239;-56
2023/09/18 13:46:29;;;;;;;3.45;1.73;;;;;;;23.12;46.25;100258.28;16122098;19;129677;-51
2023/09/18 13:51:51;;;;;;;4.53;1.63;;;;;;;23.11;46.05;100265.00;16122089;19;129747;-50
2023/09/18 13:57:13;;;;;;;3.78;1.60;;;;;;;23.12;46.00;100263.06;16120526;19;130694;-53
2023/09/18 14:02:35;;;;;;;4.05;1.73;;;;;;;23.12;46.32;100263.06;16119018;19;130906;-52
2023/09/18 14:07:59;;;;;;;4.72;1.58;;;;;;;23.12;45.86;100241.56;16117378;19;130570;-55
2023/09/18 14:13:22;;;;;;;2.05;1.30;;;;;;;23.11;45.71;100228.72;16116784;19;129673;-53
2023/09/18 14:18:44;;;;;;;2.88;1.75;;;;;;;23.11;45.45;100227.91;16120589;19;131054;-56
2023/09/18 14:24:06;;;;;;;5.47;1.60;;;;;;;23.11;45.41;100216.75;16118804;19;130681;-54
2023/09/18 14:29:30;;;;;;;2.97;1.65;;;;;;;23.07;45.27;100229.63;16117768;19;130270;-55
2023/09/18 14:34:52;;;;;;;5.72;1.45;;;;;;;23.04;44.94;100215.13;16116941;19;129709;-52
2023/09/18 14:40:14;;;;;;;3.30;1.52;;;;;;;23.03;44.61;100218.22;16117416;19;129705;-55
2023/09/18 14:45:38;;;;;;;3.42;1.70;;;;;;;22.99;44.79;100220.75;16117632;19;129733;-54
2023/09/18 14:51:00;;;;;;;3.35;1.55;;;;;;;22.98;44.30;100210.72;16119253;19;130193;-54
2023/09/18 14:56:22;;;;;;;6.90;1.70;;;;;;;22.95;43.96;100228.03;16111638;19;129230;-53
2023/09/18 15:01:44;;;;;;;4.55;1.25;;;;;;;22.93;44.42;100257.38;16108816;19;130436;-52
2023/09/18 15:07:06;;;;;;;3.55;1.60;;;;;;;22.91;44.63;100324.56;16114314;19;129690;-59
2023/09/18 15:12:29;;;;;;;6.28;1.27;;;;;;;22.91;44.83;100334.91;16116801;19;129464;-54
2023/09/18 15:17:54;;;;;;;4.10;1.52;;;;;;;22.92;45.49;100291.97;16117427;19;129732;-49
2023/09/18 15:23:17;;;;;;;10.20;1.98;;;;;;;22.91;45.61;100290.28;16109147;19;130887;-55
2023/09/18 15:28:40;;;;;;;6.00;1.65;;;;;;;22.92;45.81;100286.38;16113464;19;130841;-52
2023/09/18 15:34:02;;;;;;;11.77;2.20;;;;;;;22.91;46.56;100288.31;16114206;19;130730;-53
2023/09/18 15:39:26;;;;;;;12.30;2.03;;;;;;;22.93;46.28;100280.50;16109912;19;129664;-55
2023/09/18 15:44:48;;;;;;;6.63;1.88;;;;;;;22.94;47.04;100290.53;16112276;19;129638;-55
2023/09/18 15:50:11;;;;;;;26.08;5.32;;;;;;;22.95;47.53;100286.63;16111480;19;130598;-56
2023/09/18 15:55:33;;;;;;;36.38;7.85;;;;;;;22.96;48.12;100282.72;16112166;19;129967;-52
2023/09/18 16:00:58;;;;;;;24.60;7.15;;;;;;;22.95;48.08;100291.38;16110623;19;129437;-52
2023/09/18 16:06:20;;;;;;;28.63;6.10;;;;;;;22.94;48.69;100301.69;16110034;19;130954;-48
2023/09/18 16:11:42;;;;;;;28.42;6.32;;;;;;;22.97;49.10;100306.69;16119072;19;130749;-56
2023/09/18 16:17:08;;;;;;;24.85;6.30;;;;;;;23.00;49.37;100306.13;16131930;19;130999;-49
2023/09/18 16:22:30;;;;;;;20.85;5.20;;;;;;;23.01;49.39;100302.22;16131301;19;130802;-51
2023/09/18 16:27:53;;;;;;;16.50;5.10;;;;;;;23.02;49.12;100294.66;16129381;19;129852;-54
2023/09/18 16:33:15;;;;;;;18.50;4.72;;;;;;;23.04;49.52;100300.78;16128986;19;130952;-55
2023/09/18 16:38:41;;;;;;;14.57;3.72;;;;;;;23.04;49.89;100306.38;16126554;19;130372;-59
2023/09/18 16:44:04;;;;;;;15.30;3.85;;;;;;;23.04;49.81;100312.75;16127826;19;130755;-52
2023/09/18 16:49:26;;;;;;;16.48;3.92;;;;;;;23.05;49.53;100320.00;16129361;19;129746;-60
2023/09/18 16:54:48;;;;;;;9.25;3.35;;;;;;;23.04;49.51;100321.13;16128230;19;129471;-60
2023/09/18 17:00:11;;;;;;;12.05;3.28;;;;;;;23.04;49.71;100321.13;16127960;19;131496;-53
2023/09/18 17:05:34;;;;;;;12.25;2.97;;;;;;;23.04;49.41;100323.91;16125654;19;129872;-48
2023/09/18 17:10:56;;;;;;;8.43;2.90;;;;;;;23.04;49.58;100331.47;16124731;19;131333;-49
2023/09/18 17:16:19;;;;;;;7.07;2.88;;;;;;;23.04;49.53;100329.50;16123732;19;130543;-59
2023/09/18 17:21:41;;;;;;;10.68;2.53;;;;;;;23.04;49.44;100328.69;16122229;19;129338;-57
2023/09/18 17:27:06;;;;;;;7.97;2.50;;;;;;;23.04;49.46;100331.47;16125273;19;130253;-62
2023/09/18 17:32:28;;;;;;;7.10;2.40;;;;;;;23.03;49.46;100339.00;16124558;19;129947;-58
2023/09/18 17:37:50;;;;;;;6.28;2.15;;;;;;;23.03;49.44;100344.56;16126097;19;133924;-64
2023/09/18 17:43:13;;;;;;;4.97;2.05;;;;;;;23.04;49.41;100360.19;16123726;19;129948;-58
2023/09/18 17:48:35;;;;;;;6.07;2.08;;;;;;;23.03;49.45;100358.53;16123472;19;129891;-49
2023/09/18 17:53:57;;;;;;;6.38;1.90;;;;;;;23.03;49.33;100368.88;16124662;19;131170;-55
2023/09/18 17:59:19;;;;;;;4.85;1.73;;;;;;;23.02;49.28;100368.00;16123818;19;129481;-58
2023/09/18 18:04:41;;;;;;;3.70;1.58;;;;;;;23.02;49.04;100375.56;16124085;19;130195;-55
2023/09/18 18:10:04;;;;;;;4.90;1.85;;;;;;;23.01;49.07;100380.31;16118854;19;130671;-63
2023/09/18 18:15:26;;;;;;;3.95;1.40;;;;;;;23.01;48.94;100385.91;16121803;19;129610;-57
2023/09/18 18:20:48;;;;;;;4.32;1.55;;;;;;;23.01;48.92;100385.91;16122152;19;130677;-56
2023/09/18 18:26:10;;;;;;;3.05;1.35;;;;;;;23.01;48.74;100404.56;16122710;19;134241;-48
2023/09/18 18:31:33;;;;;;;2.42;1.15;;;;;;;23.01;48.68;100404.56;16119556;19;130518;-56
2023/09/18 18:36:55;;;;;;;3.08;1.40;;;;;;;22.99;48.85;100404.88;16117598;19;130312;-57
2023/09/18 18:42:17;;;;;;;2.90;1.20;;;;;;;23.00;48.72;100433.59;16116799;19;129790;-54
2023/09/18 18:47:39;;;;;;;3.38;1.35;;;;;;;22.99;48.23;100418.81;16117668;19;130779;-54
2023/09/18 18:53:01;;;;;;;3.10;0.98;;;;;;;22.98;48.32;100435.84;16116955;19;129414;-55
2023/09/18 18:58:24;;;;;;;4.53;1.08;;;;;;;22.98;48.33;100447.84;16119632;19;129386;-56
2023/09/18 19:03:46;;;;;;;3.10;1.15;;;;;;;22.98;48.35;100464.56;16114347;19;129470;-57
2023/09/18 19:09:11;;;;;;;2.80;1.20;;;;;;;22.98;48.07;100458.16;16114734;19;129246;-52
2023/09/18 19:14:33;;;;;;;3.33;1.38;;;;;;;22.98;48.07;100472.09;16115974;19;130836;-50
2023/09/18 19:19:54;;;;;;;1.45;0.77;;;;;;;22.97;48.37;100473.22;16116970;19;129526;-53
2023/09/18 19:25:16;;;;;;;3.53;0.98;;;;;;;22.97;48.19;100487.16;16116925;19;129456;-54
2023/09/18 19:30:45;;;;;;;4.10;1.27;;;;;;;22.96;48.08;100488.28;16112046;19;129962;-54
2023/09/18 19:36:08;;;;;;;2.45;0.90;;;;;;;22.95;47.98;100500.59;16113631;19;129456;-55
2023/09/18 19:41:30;;;;;;;7.95;1.20;;;;;;;22.94;48.00;100510.91;16115614;19;130837;-57
2023/09/18 19:46:52;;;;;;;1.90;0.82;;;;;;;22.92;47.86;100518.72;16115510;19;129719;-54
2023/09/18 19:52:15;;;;;;;4.00;0.85;;;;;;;22.91;48.26;100530.16;16112641;19;129585;-56
2023/09/18 19:57:39;;;;;;;2.95;0.90;;;;;;;22.93;47.96;100539.09;16107643;19;129591;-53
2023/09/18 20:03:01;;;;;;;1.88;0.90;;;;;;;22.91;48.18;100547.72;16111528;19;130751;-58
2023/09/18 20:08:23;;;;;;;5.90;1.27;;;;;;;22.92;47.96;100554.16;16110021;19;129883;-55
2023/09/18 20:13:45;;;;;;;2.88;1.00;;;;;;;22.91;48.10;100552.47;16113592;19;133898;-57
2023/09/18 20:19:13;;;;;;;11.80;1.20;;;;;;;22.90;47.96;100560.00;16110379;19;131854;-54
2023/09/18 20:24:36;;;;;;;5.22;1.10;;;;;;;22.92;47.85;100560.56;16112113;19;129355;-55
2023/09/18 20:29:58;;;;;;;10.38;1.30;;;;;;;22.91;47.78;100558.06;16111490;19;129798;-55
2023/09/18 20:35:20;;;;;;;8.77;1.35;;;;;;;22.92;47.71;100571.72;16112611;19;129696;-57
2023/09/18 20:40:43;;;;;;;6.68;1.33;;;;;;;22.92;47.11;100580.06;16111279;19;129538;-55
2023/09/18 20:46:06;;;;;;;12.13;1.63;;;;;;;22.93;47.41;100586.50;16112732;19;131428;-54
2023/09/18 20:51:28;;;;;;;7.40;1.33;;;;;;;22.93;47.40;100583.72;16112288;19;129945;-50
2023/09/18 20:56:53;;;;;;;10.68;1.48;;;;;;;22.93;47.41;100595.69;16109290;19;130383;-59
2023/09/18 21:02:15;;;;;;;8.60;1.75;;;;;;;22.95;47.18;100598.22;16126884;19;130796;-56
2023/09/18 21:07:39;;;;;;;5.97;1.50;;;;;;;22.94;47.50;100604.91;16125747;19;130337;-59
2023/09/18 21:13:02;;;;;;;7.17;1.50;;;;;;;22.93;47.08;100608.81;16116676;19;131569;-57
2023/09/18 21:18:24;;;;;;;4.30;1.80;;;;;;;22.92;47.14;100629.47;16122357;19;130091;-59
2023/09/18 21:23:46;;;;;;;5.80;1.40;;;;;;;22.89;47.14;100617.72;16117469;19;129951;-56
2023/09/18 21:29:08;;;;;;;4.63;1.52;;;;;;;22.88;47.04;100615.22;16118712;19;130418;-58
2023/09/18 21:34:30;;;;;;;7.35;1.70;;;;;;;22.85;46.90;100622.19;16116299;19;133438;-56
2023/09/18 21:39:52;;;;;;;6.75;1.60;;;;;;;22.83;46.92;100630.00;16112462;19;131447;-57
2023/09/18 21:45:15;;;;;;;5.03;1.50;;;;;;;22.82;47.12;100628.34;16118176;19;129775;-56
2023/09/18 21:50:37;;;;;;;5.65;1.40;;;;;;;22.81;47.17;100639.75;16119735;19;129721;-58
2023/09/18 21:56:03;;;;;;;5.93;1.30;;;;;;;22.80;47.12;100657.63;16117995;19;130288;-55
2023/09/18 22:01:26;;;;;;;5.80;1.45;;;;;;;22.78;47.16;100655.13;16114905;19;134207;-57
2023/09/18 22:06:48;;;;;;;8.00;1.27;;;;;;;22.77;47.49;100663.78;16114281;19;130531;-57
2023/09/18 22:12:09;;;;;;;3.17;1.20;;;;;;;22.76;47.13;100674.09;16118506;19;130993;-56
2023/09/18 22:17:32;;;;;;;6.90;1.65;;;;;;;22.73;47.16;100689.44;16112783;19;129610;-54
2023/09/18 22:23:02;;;;;;;4.72;1.50;;;;;;;22.70;47.32;100703.94;16114445;19;130317;-56
2023/09/18 22:28:24;;;;;;;7.07;1.60;;;;;;;22.70;47.32;100703.94;16114130;19;133288;-56
2023/09/18 22:33:48;;;;;;;3.30;1.30;;;;;;;22.67;46.94;100715.63;16113722;19;130959;-55
2023/09/18 22:39:32;;;;;;;3.33;1.35;;;;;;;22.68;47.21;100717.31;16113774;19;130878;-55
2023/09/18 22:45:31;;;;;;;4.13;1.38;;;;;;;22.66;47.29;100727.06;16113681;19;131294;-57
2023/09/18 22:51:31;;;;;;;6.05;1.38;;;;;;;22.64;47.31;100726.50;16113635;19;130223;-56
2023/09/18 22:56:53;;;;;;;3.58;1.30;;;;;;;22.60;47.39;100740.19;16116921;19;130981;-57
2023/09/18 23:02:16;;;;;;;3.88;1.40;;;;;;;22.59;47.42;100752.44;16114457;19;130291;-57
2023/09/18 23:07:40;;;;;;;5.80;1.40;;;;;;;22.59;47.34;100746.88;16114129;19;130001;-57
2023/09/18 23:13:06;;;;;;;5.90;1.45;;;;;;;22.58;47.29;100756.34;16113313;19;129705;-58
2023/09/18 23:18:30;;;;;;;5.05;1.38;;;;;;;22.57;47.33;100760.25;16110872;19;129804;-58
2023/09/18 23:23:53;;;;;;;5.73;1.57;;;;;;;22.55;47.42;100774.47;16109384;19;130270;-55
2023/09/18 23:29:16;;;;;;;4.75;1.40;;;;;;;22.54;47.45;100789.53;16112776;19;131353;-55
2023/09/18 23:34:38;;;;;;;7.65;1.65;;;;;;;22.53;47.02;100792.56;16110392;19;129524;-56
2023/09/18 23:40:00;;;;;;;4.65;1.50;;;;;;;22.52;47.54;100802.91;16111711;19;130555;-52
2023/09/18 23:45:23;;;;;;;3.00;1.10;;;;;;;22.50;47.71;100796.75;16111766;19;130877;-56
2023/09/18 23:50:47;;;;;;;4.05;1.40;;;;;;;22.50;47.44;100804.28;16113757;19;130368;-55
2023/09/18 23:56:12;;;;;;;3.63;1.13;;;;;;;22.49;47.72;100810.97;16114773;19;130563;-54
